Time,TemperatureF,DewpointF,PressureIn,WindDirection,WindDirectionDegrees,WindSpeedMPH,WindSpeedGustMPH,Humidity,HourlyPrecipIn,Conditions,Clouds,dailyrainin,SoftwareType,DateUTC
2013-07-21 00:00:00,72.0,69.6,30.00,NW,319,0.0,0.0,92,0.00,,---,0.00,VWS V14.01,2013-07-21 04:00:00,
2013-07-21 00:01:00,72.0,69.6,30.00,NW,319,0.0,0.0,92,0.00,,---,0.00,VWS V14.01,2013-07-21 04:01:00,
2013-07-21 00:06:00,72.0,69.9,30.00,NW,319,0.0,0.0,93,0.00,,---,0.00,VWS V14.01,2013-07-21 04:06:00,
2013-07-21 00:11:00,71.9,69.8,29.99,NW,319,0.0,0.0,93,0.00,,---,0.00,VWS V14.01,2013-07-21 04:11:00,
2013-07-21 00:16:00,71.8,69.7,29.99,NW,319,0.0,0.0,93,0.00,,---,0.00,VWS V14.01,2013-07-21 04:16:00,
2013-07-21 00:21:00,71.7,69.3,30.00,NW,319,0.0,0.0,92,0.00,,---,0.00,VWS V14.01,2013-07-21 04:21:00,
2013-07-21 00:26:00,71.7,69.6,29.99,NW,319,0.0,0.0,93,0.00,,---,0.00,VWS V14.01,2013-07-21 04:26:00,
2013-07-21 00:30:00,71.7,69.6,29.99,NW,319,0.0,0.0,93,0.00,,---,0.00,VWS V14.01,2013-07-21 04:30:00,
2013-07-21 00:31:00,71.6,69.5,29.99,NW,319,0.0,0.0,93,0.00,,---,0.00,VWS V14.01,2013-07-21 04:31:00,
2013-07-21 00:36:00,71.6,69.5,29.99,NW,319,0.0,0.0,93,0.00,,---,0.00,VWS V14.01,2013-07-21 04:36:00,
2013-07-21 00:41:00,71.5,69.4,30.00,NW,319,0.0,0.0,93,0.00,,---,0.00,VWS V14.01,2013-07-21 04:41:00,
2013-07-21 00:46:00,71.4,69.3,30.00,NW,319,0.0,0.0,93,0.00,,---,0.00,VWS V14.01,2013-07-21 04:46:00,
2013-07-21 00:50:00,71.4,69.3,30.00,NW,319,0.0,0.0,93,0.00,,---,0.00,VWS V14.01,2013-07-21 04:50:00,
2013-07-21 00:51:00,71.4,69.3,30.00,NW,319,0.0,0.0,93,0.00,,---,0.00,VWS V14.01,2013-07-21 04:51:00,
2013-07-21 01:42:00,71.4,69.3,30.00,NW,319,0.0,0.0,93,0.00,,---,0.00,VWS V14.01,2013-07-21 05:42:00,
2013-07-21 01:47:00,70.5,68.7,29.99,NW,319,0.0,0.0,94,0.00,,---,0.00,VWS V14.01,2013-07-21 05:47:00,
2013-07-21 01:52:00,70.5,68.7,29.99,NW,319,0.0,0.0,94,0.00,,---,0.00,VWS V14.01,2013-07-21 05:52:00,
2013-07-21 01:57:00,70.4,68.6,29.99,NW,319,0.0,0.0,94,0.00,,---,0.00,VWS V14.01,2013-07-21 05:57:00,
2013-07-21 02:00:00,70.3,68.5,29.99,NW,319,0.0,0.0,94,0.00,,---,0.00,VWS V14.01,2013-07-21 06:00:00,
2013-07-21 02:02:00,70.2,68.4,29.99,NW,319,0.0,0.0,94,0.00,,---,0.00,VWS V14.01,2013-07-21 06:02:00,
2013-07-21 02:07:00,70.0,68.2,29.99,NW,319,0.0,0.0,94,0.00,,---,0.00,VWS V14.01,2013-07-21 06:07:00,
2013-07-21 02:12:00,70.0,68.2,29.98,NW,319,0.0,0.0,94,0.00,,---,0.00,VWS V14.01,2013-07-21 06:12:00,
2013-07-21 02:44:00,70.0,68.2,29.99,NW,319,0.0,0.0,94,0.00,,---,0.00,VWS V14.01,2013-07-21 06:44:00,
2013-07-21 02:49:00,69.6,68.1,29.98,NW,319,0.0,0.0,95,0.00,,---,0.00,VWS V14.01,2013-07-21 06:49:00,
2013-07-21 02:54:00,69.6,68.1,29.98,NW,319,0.0,0.0,95,0.00,,---,0.00,VWS V14.01,2013-07-21 06:54:00,
2013-07-21 02:59:00,69.6,68.1,29.98,NW,319,0.0,0.0,95,0.00,,---,0.00,VWS V14.01,2013-07-21 06:59:00,
2013-07-21 03:00:00,69.6,68.1,29.98,NW,319,0.0,0.0,95,0.00,,---,0.00,VWS V14.01,2013-07-21 07:00:00,
2013-07-21 03:04:00,69.6,68.1,29.97,NW,319,0.0,0.0,95,0.00,,---,0.00,VWS V14.01,2013-07-21 07:04:00,
2013-07-21 03:09:00,69.5,68.0,29.98,NW,319,0.0,0.0,95,0.00,,---,0.00,VWS V14.01,2013-07-21 07:09:00,
2013-07-21 03:14:00,69.5,68.0,29.98,NW,319,0.0,0.0,95,0.00,,---,0.00,VWS V14.01,2013-07-21 07:14:00,
2013-07-21 03:19:00,69.4,67.9,29.97,NW,319,0.0,0.0,95,0.00,,---,0.00,VWS V14.01,2013-07-21 07:19:00,
2013-07-21 03:24:00,69.3,67.8,29.97,NW,319,0.0,0.0,95,0.00,,---,0.00,VWS V14.01,2013-07-21 07:24:00,
2013-07-21 03:29:00,69.3,67.8,29.97,NW,319,0.0,0.0,95,0.00,,---,0.00,VWS V14.01,2013-07-21 07:29:00,
2013-07-21 03:30:00,69.3,67.8,29.97,NW,319,0.0,0.0,95,0.00,,---,0.00,VWS V14.01,2013-07-21 07:30:00,
2013-07-21 03:46:00,69.2,67.7,29.97,NW,319,0.0,0.0,95,0.00,,---,0.00,VWS V14.01,2013-07-21 07:46:00,
2013-07-21 03:51:00,69.1,67.6,29.97,NW,319,0.0,0.0,95,0.00,,---,0.00,VWS V14.01,2013-07-21 07:51:00,
2013-07-21 03:56:00,69.1,67.6,29.96,NW,319,0.0,0.0,95,0.00,,---,0.00,VWS V14.01,2013-07-21 07:56:00,
2013-07-21 04:00:00,69.1,67.6,29.96,NW,319,0.0,0.0,95,0.00,,---,0.00,VWS V14.01,2013-07-21 08:00:00,
2013-07-21 04:01:00,69.1,67.6,29.96,NW,319,0.0,0.0,95,0.00,,---,0.00,VWS V14.01,2013-07-21 08:01:00,
2013-07-21 04:06:00,69.0,67.5,29.96,NW,319,0.0,0.0,95,0.00,,---,0.00,VWS V14.01,2013-07-21 08:06:00,
2013-07-21 04:11:00,68.9,67.4,29.96,NW,319,0.0,0.0,95,0.00,,---,0.00,VWS V14.01,2013-07-21 08:11:00,
2013-07-21 04:15:00,68.8,67.3,29.97,NW,319,0.0,0.0,95,0.00,,---,0.00,VWS V14.01,2013-07-21 08:15:00,
2013-07-21 04:16:00,68.8,67.3,29.97,NW,319,0.0,0.0,95,0.00,,---,0.00,VWS V14.01,2013-07-21 08:16:00,
2013-07-21 04:41:00,68.8,67.3,29.97,NW,319,0.0,0.0,95,0.00,,---,0.00,VWS V14.01,2013-07-21 08:41:00,
2013-07-21 04:46:00,69.0,67.5,29.97,NW,319,0.0,0.0,95,0.00,,---,0.00,VWS V14.01,2013-07-21 08:46:00,
2013-07-21 04:51:00,69.0,67.5,29.97,NW,319,0.0,0.0,95,0.00,,---,0.00,VWS V14.01,2013-07-21 08:51:00,
2013-07-21 04:56:00,69.0,67.5,29.97,NW,319,0.0,0.0,95,0.00,,---,0.00,VWS V14.01,2013-07-21 08:56:00,
2013-07-21 05:00:00,68.9,67.4,29.97,NW,319,0.0,0.0,95,0.00,,---,0.00,VWS V14.01,2013-07-21 09:00:00,
2013-07-21 05:01:00,68.9,67.4,29.97,NW,319,0.0,0.0,95,0.00,,---,0.00,VWS V14.01,2013-07-21 09:01:00,
2013-07-21 05:06:00,68.9,67.7,29.97,NW,319,0.0,0.0,96,0.00,,---,0.00,VWS V14.01,2013-07-21 09:06:00,
2013-07-21 05:11:00,68.9,67.7,29.97,NW,319,0.0,0.0,96,0.00,,---,0.00,VWS V14.01,2013-07-21 09:11:00,
2013-07-21 05:16:00,68.9,67.7,29.97,NW,319,0.0,1.0,96,0.00,,---,0.00,VWS V14.01,2013-07-21 09:16:00,
2013-07-21 05:23:00,69.0,67.8,29.97,NW,319,0.0,1.0,96,0.00,,---,0.00,VWS V14.01,2013-07-21 09:23:00,
2013-07-21 05:28:00,69.1,67.9,29.97,NW,319,0.0,1.0,96,0.00,,---,0.00,VWS V14.01,2013-07-21 09:28:00,
2013-07-21 05:30:00,69.1,67.9,29.97,NW,319,0.0,1.0,96,0.00,,---,0.00,VWS V14.01,2013-07-21 09:30:00,
2013-07-21 05:33:00,69.2,68.0,29.97,NW,319,0.0,0.0,96,0.00,,---,0.00,VWS V14.01,2013-07-21 09:33:00,
2013-07-21 05:38:00,69.3,68.1,29.98,NW,319,0.0,0.0,96,0.00,,---,0.00,VWS V14.01,2013-07-21 09:38:00,
2013-07-21 05:49:00,69.3,68.1,29.98,NW,319,0.0,0.0,96,0.00,,---,0.00,VWS V14.01,2013-07-21 09:49:00,
2013-07-21 05:54:00,69.6,68.4,29.98,NW,319,0.0,0.0,96,0.00,,---,0.00,VWS V14.01,2013-07-21 09:54:00,
2013-07-21 05:59:00,69.7,68.5,29.98,NW,319,0.0,0.0,96,0.00,,---,0.00,VWS V14.01,2013-07-21 09:59:00,
2013-07-21 06:00:00,69.8,68.6,29.98,NW,319,0.0,0.0,96,0.00,,---,0.00,VWS V14.01,2013-07-21 10:00:00,
2013-07-21 06:04:00,69.8,68.6,29.98,NW,319,0.0,1.0,96,0.00,,---,0.00,VWS V14.01,2013-07-21 10:04:00,
2013-07-21 06:09:00,70.0,68.8,29.98,NW,319,0.0,1.0,96,0.00,,---,0.00,VWS V14.01,2013-07-21 10:09:00,
2013-07-21 06:14:00,70.1,68.9,29.98,NW,319,0.0,1.0,96,0.00,,---,0.00,VWS V14.01,2013-07-21 10:14:00,
2013-07-21 06:19:00,70.1,68.9,29.98,NW,319,0.0,1.0,96,0.00,,---,0.00,VWS V14.01,2013-07-21 10:19:00,
2013-07-21 06:24:00,70.1,68.9,29.98,NW,319,0.0,1.0,96,0.00,,---,0.00,VWS V14.01,2013-07-21 10:24:00,
2013-07-21 06:29:00,70.2,69.0,29.98,NW,319,0.0,1.0,96,0.00,,---,0.00,VWS V14.01,2013-07-21 10:29:00,
2013-07-21 06:30:00,70.2,69.0,29.98,NW,319,0.0,1.0,96,0.00,,---,0.00,VWS V14.01,2013-07-21 10:30:00,
2013-07-21 06:34:00,70.1,68.9,29.98,NW,319,0.0,0.0,96,0.00,,---,0.00,VWS V14.01,2013-07-21 10:34:00,
2013-07-21 06:39:00,70.1,68.9,29.99,NW,319,0.0,0.0,96,0.00,,---,0.00,VWS V14.01,2013-07-21 10:39:00,
2013-07-21 06:44:00,70.0,68.8,29.99,NW,319,0.0,0.0,96,0.00,,---,0.00,VWS V14.01,2013-07-21 10:44:00,
2013-07-21 06:49:00,70.0,68.8,29.99,NW,319,0.0,0.0,96,0.00,,---,0.00,VWS V14.01,2013-07-21 10:49:00,
2013-07-21 12:17:00,69.9,68.7,29.98,NW,319,0.0,0.0,96,0.00,,---,0.00,VWS V14.01,2013-07-21 16:17:00,
2013-07-21 12:22:00,84.8,75.2,30.00,West,273,0.0,4.0,73,0.00,,---,0.00,VWS V14.01,2013-07-21 16:22:00,
2013-07-21 12:27:00,84.8,76.0,30.00,WSW,250,2.0,6.0,75,0.00,,---,0.00,VWS V14.01,2013-07-21 16:27:00,
2013-07-21 12:30:00,84.2,75.0,30.00,WSW,238,2.0,6.0,74,0.00,,---,0.00,VWS V14.01,2013-07-21 16:30:00,
2013-07-21 12:32:00,84.0,75.6,30.00,WSW,238,0.0,3.0,76,0.00,,---,0.00,VWS V14.01,2013-07-21 16:32:00,
2013-07-21 12:37:00,84.1,74.9,30.00,WSW,248,1.0,6.0,74,0.00,,---,0.00,VWS V14.01,2013-07-21 16:37:00,
2013-07-21 12:42:00,85.1,75.1,30.00,WSW,248,2.0,6.0,72,0.00,,---,0.00,VWS V14.01,2013-07-21 16:42:00,
2013-07-21 12:47:00,85.5,76.3,30.00,West,263,3.0,9.0,74,0.00,,---,0.00,VWS V14.01,2013-07-21 16:47:00,
2013-07-21 12:52:00,85.5,75.4,30.00,West,263,2.0,9.0,72,0.00,,---,0.00,VWS V14.01,2013-07-21 16:52:00,
2013-07-21 12:57:00,86.6,76.1,29.99,West,263,0.0,9.0,71,0.00,,---,0.00,VWS V14.01,2013-07-21 16:57:00,
2013-07-21 13:00:00,87.6,77.5,29.99,West,263,0.0,9.0,72,0.00,,---,0.00,VWS V14.01,2013-07-21 17:00:00,
2013-07-21 13:02:00,87.8,76.8,29.99,SW,235,6.0,7.0,70,0.00,,---,0.00,VWS V14.01,2013-07-21 17:02:00,
2013-07-21 13:07:00,86.0,75.1,29.99,SW,227,4.0,7.0,70,0.00,,---,0.00,VWS V14.01,2013-07-21 17:07:00,
2013-07-21 13:12:00,85.3,75.7,29.99,West,274,2.0,10.0,73,0.00,,---,0.00,VWS V14.01,2013-07-21 17:12:00,
2013-07-21 13:17:00,85.0,75.4,29.98,West,269,3.0,10.0,73,0.00,,---,0.00,VWS V14.01,2013-07-21 17:17:00,
2013-07-21 13:22:00,84.7,75.5,29.98,WSW,247,5.0,10.0,74,0.00,,---,0.00,VWS V14.01,2013-07-21 17:22:00,
2013-07-21 13:27:00,84.0,75.2,29.98,WSW,241,1.0,10.0,75,0.00,,---,0.00,VWS V14.01,2013-07-21 17:27:00,
2013-07-21 13:30:00,84.2,74.6,29.98,West,261,4.0,10.0,73,0.00,,---,0.00,VWS V14.01,2013-07-21 17:30:00,
2013-07-21 13:32:00,84.4,74.4,29.97,West,262,0.0,5.0,72,0.00,,---,0.00,VWS V14.01,2013-07-21 17:32:00,
2013-07-21 13:37:00,85.2,74.7,29.97,West,270,0.0,7.0,71,0.00,,---,0.00,VWS V14.01,2013-07-21 17:37:00,
2013-07-21 13:42:00,85.9,75.8,29.97,West,274,0.0,9.0,72,0.00,,---,0.00,VWS V14.01,2013-07-21 17:42:00,
2013-07-21 13:47:00,86.2,75.7,29.97,West,259,3.0,9.0,71,0.00,,---,0.00,VWS V14.01,2013-07-21 17:47:00,
2013-07-21 13:52:00,85.7,75.2,29.97,West,264,3.0,9.0,71,0.00,,---,0.00,VWS V14.01,2013-07-21 17:52:00,
2013-07-21 13:57:00,85.9,75.4,29.96,West,273,1.0,9.0,71,0.00,,---,0.00,VWS V14.01,2013-07-21 17:57:00,
2013-07-21 14:00:00,86.4,75.9,29.96,West,273,4.0,9.0,71,0.00,,---,0.00,VWS V14.01,2013-07-21 18:00:00,
2013-07-21 14:02:00,86.3,75.4,29.96,West,267,4.0,5.0,70,0.00,,---,0.00,VWS V14.01,2013-07-21 18:02:00,
2013-07-21 14:07:00,86.2,75.7,29.96,WSW,256,3.0,6.0,71,0.00,,---,0.00,VWS V14.01,2013-07-21 18:07:00,
2013-07-21 14:12:00,86.7,75.8,29.95,West,263,6.0,9.0,70,0.00,,---,0.00,VWS V14.01,2013-07-21 18:12:00,
2013-07-21 14:17:00,87.0,76.0,29.95,West,267,2.0,9.0,70,0.00,,---,0.00,VWS V14.01,2013-07-21 18:17:00,
2013-07-21 14:22:00,87.3,75.0,29.95,West,269,0.0,9.0,67,0.00,,---,0.00,VWS V14.01,2013-07-21 18:22:00,
2013-07-21 14:27:00,87.6,75.3,29.95,West,269,0.0,9.0,67,0.00,,---,0.00,VWS V14.01,2013-07-21 18:27:00,
2013-07-21 14:30:00,88.0,76.6,29.94,West,268,2.0,9.0,69,0.00,,---,0.00,VWS V14.01,2013-07-21 18:30:00,
2013-07-21 14:32:00,87.9,76.5,29.95,West,265,3.0,5.0,69,0.00,,---,0.00,VWS V14.01,2013-07-21 18:32:00,
2013-07-21 14:37:00,87.3,75.9,29.94,WSW,249,0.0,7.0,69,0.00,,---,0.00,VWS V14.01,2013-07-21 18:37:00,
2013-07-21 14:42:00,87.1,76.1,29.94,WSW,248,4.0,7.0,70,0.00,,---,0.00,VWS V14.01,2013-07-21 18:42:00,
2013-07-21 14:47:00,87.2,75.8,29.94,WSW,245,2.0,7.0,69,0.00,,---,0.00,VWS V14.01,2013-07-21 18:47:00,
2013-07-21 14:52:00,87.8,75.9,29.94,West,268,0.0,7.0,68,0.00,,---,0.00,VWS V14.01,2013-07-21 18:52:00,
2013-07-21 14:57:00,88.5,76.6,29.94,WSW,242,4.0,7.0,68,0.00,,---,0.00,VWS V14.01,2013-07-21 18:57:00,
2013-07-21 15:00:00,88.8,76.4,29.93,WSW,256,2.0,8.0,67,0.00,,---,0.00,VWS V14.01,2013-07-21 19:00:00,
2013-07-21 15:02:00,88.8,75.5,29.94,WSW,252,0.0,6.0,65,0.00,,---,0.00,VWS V14.01,2013-07-21 19:02:00,
2013-07-21 15:07:00,88.7,76.3,29.93,WSW,252,5.0,6.0,67,0.00,,---,0.00,VWS V14.01,2013-07-21 19:07:00,
2013-07-21 15:12:00,88.2,75.9,29.93,WSW,250,6.0,6.0,67,0.00,,---,0.00,VWS V14.01,2013-07-21 19:12:00,
2013-07-21 15:17:00,87.1,75.3,29.93,West,261,1.0,6.0,68,0.00,,---,0.00,VWS V14.01,2013-07-21 19:17:00,
2013-07-21 15:22:00,87.1,75.7,29.93,West,263,0.0,6.0,69,0.00,,---,0.00,VWS V14.01,2013-07-21 19:22:00,
2013-07-21 15:27:00,86.7,75.3,29.93,West,262,4.0,6.0,69,0.00,,---,0.00,VWS V14.01,2013-07-21 19:27:00,
2013-07-21 15:30:00,86.2,75.3,29.92,West,262,4.0,6.0,70,0.00,,---,0.00,VWS V14.01,2013-07-21 19:30:00,
2013-07-21 15:32:00,86.1,75.2,29.92,West,259,5.0,5.0,70,0.00,,---,0.00,VWS V14.01,2013-07-21 19:32:00,
2013-07-21 15:37:00,86.6,76.1,29.92,SW,221,2.0,8.0,71,0.00,,---,0.00,VWS V14.01,2013-07-21 19:37:00,
2013-07-21 15:42:00,86.8,75.4,29.92,SW,225,1.0,8.0,69,0.00,,---,0.00,VWS V14.01,2013-07-21 19:42:00,
2013-07-21 15:47:00,86.7,75.3,29.92,WSW,237,3.0,8.0,69,0.00,,---,0.00,VWS V14.01,2013-07-21 19:47:00,
2013-07-21 15:52:00,87.7,75.8,29.92,SW,229,5.0,8.0,68,0.00,,---,0.00,VWS V14.01,2013-07-21 19:52:00,
2013-07-21 15:57:00,88.4,76.1,29.92,SW,233,5.0,8.0,67,0.00,,---,0.00,VWS V14.01,2013-07-21 19:57:00,
2013-07-21 16:00:00,87.5,75.6,29.92,SW,232,0.0,8.0,68,0.00,,---,0.00,VWS V14.01,2013-07-21 20:00:00,
2013-07-21 16:02:00,87.5,75.6,29.92,SW,233,0.0,4.0,68,0.00,,---,0.00,VWS V14.01,2013-07-21 20:02:00,
2013-07-21 16:07:00,87.2,75.8,29.92,WSW,246,6.0,7.0,69,0.00,,---,0.00,VWS V14.01,2013-07-21 20:07:00,
2013-07-21 16:12:00,87.6,76.2,29.92,West,271,1.0,11.0,69,0.00,,---,0.00,VWS V14.01,2013-07-21 20:12:00,
2013-07-21 16:17:00,88.2,75.9,29.92,SW,236,1.0,11.0,67,0.00,,---,0.00,VWS V14.01,2013-07-21 20:17:00,
2013-07-21 16:22:00,88.3,76.8,29.92,SW,232,6.0,11.0,69,0.00,,---,0.00,VWS V14.01,2013-07-21 20:22:00,
2013-07-21 16:27:00,88.1,75.8,29.92,West,261,7.0,11.0,67,0.00,,---,0.00,VWS V14.01,2013-07-21 20:27:00,
2013-07-21 16:30:00,88.4,75.6,29.92,WSW,256,2.0,11.0,66,0.00,,---,0.00,VWS V14.01,2013-07-21 20:30:00,
2013-07-21 16:32:00,88.5,75.7,29.92,WSW,257,0.0,5.0,66,0.00,,---,0.00,VWS V14.01,2013-07-21 20:32:00,
2013-07-21 16:37:00,88.4,76.1,29.91,SW,215,4.0,8.0,67,0.00,,---,0.00,VWS V14.01,2013-07-21 20:37:00,
2013-07-21 16:42:00,88.5,75.7,29.91,West,281,3.0,8.0,66,0.00,,---,0.00,VWS V14.01,2013-07-21 20:42:00,
2013-07-21 16:47:00,88.5,75.2,29.91,West,277,4.0,8.0,65,0.00,,---,0.00,VWS V14.01,2013-07-21 20:47:00,
2013-07-21 16:52:00,88.8,75.5,29.91,West,265,2.0,8.0,65,0.00,,---,0.00,VWS V14.01,2013-07-21 20:52:00,
2013-07-21 16:57:00,88.5,77.0,29.90,West,263,0.0,8.0,69,0.00,,---,0.00,VWS V14.01,2013-07-21 20:57:00,
2013-07-21 17:00:00,88.4,75.6,29.90,West,263,2.0,8.0,66,0.00,,---,0.00,VWS V14.01,2013-07-21 21:00:00,
2013-07-21 17:02:00,88.3,75.5,29.90,West,267,4.0,6.0,66,0.00,,---,0.00,VWS V14.01,2013-07-21 21:02:00,
2013-07-21 17:07:00,88.5,75.2,29.90,West,268,0.0,6.0,65,0.00,,---,0.00,VWS V14.01,2013-07-21 21:07:00,
2013-07-21 17:12:00,89.4,75.6,29.90,West,269,3.0,6.0,64,0.00,,---,0.00,VWS V14.01,2013-07-21 21:12:00,
2013-07-21 17:17:00,89.7,76.4,29.90,West,267,2.0,6.0,65,0.00,,---,0.00,VWS V14.01,2013-07-21 21:17:00,
2013-07-21 17:22:00,89.7,75.0,29.90,West,264,0.0,6.0,62,0.00,,---,0.00,VWS V14.01,2013-07-21 21:22:00,
2013-07-21 17:27:00,89.1,74.9,29.90,West,264,1.0,6.0,63,0.00,,---,0.00,VWS V14.01,2013-07-21 21:27:00,
2013-07-21 17:30:00,89.4,76.1,29.90,West,264,0.0,6.0,65,0.00,,---,0.00,VWS V14.01,2013-07-21 21:30:00,
2013-07-21 17:32:00,89.7,75.4,29.90,West,264,2.0,4.0,63,0.00,,---,0.00,VWS V14.01,2013-07-21 21:32:00,
2013-07-21 17:37:00,90.4,75.6,29.90,West,265,0.0,6.0,62,0.00,,---,0.00,VWS V14.01,2013-07-21 21:37:00,
2013-07-21 17:42:00,90.8,75.5,29.90,West,273,2.0,6.0,61,0.00,,---,0.00,VWS V14.01,2013-07-21 21:42:00,
2013-07-21 17:47:00,90.6,74.8,29.90,West,272,2.0,7.0,60,0.00,,---,0.00,VWS V14.01,2013-07-21 21:47:00,
2013-07-21 17:52:00,90.0,74.8,29.91,West,271,1.0,7.0,61,0.00,,---,0.00,VWS V14.01,2013-07-21 21:52:00,
2013-07-21 17:57:00,89.7,75.9,29.91,West,272,3.0,7.0,64,0.00,,---,0.00,VWS V14.01,2013-07-21 21:57:00,
2013-07-21 18:00:00,89.3,75.1,29.91,West,273,5.0,7.0,63,0.00,,---,0.00,VWS V14.01,2013-07-21 22:00:00,
2013-07-21 18:02:00,89.0,74.8,29.91,West,273,5.0,6.0,63,0.00,,---,0.00,VWS V14.01,2013-07-21 22:02:00,
2013-07-21 18:07:00,87.9,75.1,29.90,West,273,2.0,7.0,66,0.00,,---,0.00,VWS V14.01,2013-07-21 22:07:00,
2013-07-21 18:12:00,87.7,75.4,29.90,West,273,0.0,7.0,67,0.00,,---,0.00,VWS V14.01,2013-07-21 22:12:00,
2013-07-21 18:17:00,87.9,75.1,29.90,West,273,0.0,7.0,66,0.00,,---,0.00,VWS V14.01,2013-07-21 22:17:00,
2013-07-21 18:22:00,87.6,75.7,29.89,West,273,0.0,7.0,68,0.00,,---,0.00,VWS V14.01,2013-07-21 22:22:00,
2013-07-21 18:27:00,87.2,74.9,29.89,West,273,0.0,7.0,67,0.00,,---,0.00,VWS V14.01,2013-07-21 22:27:00,
2013-07-21 18:30:00,87.1,75.7,29.90,West,273,1.0,7.0,69,0.00,,---,0.00,VWS V14.01,2013-07-21 22:30:00,
2013-07-21 18:32:00,87.0,75.2,29.90,West,273,0.0,1.0,68,0.00,,---,0.00,VWS V14.01,2013-07-21 22:32:00,
2013-07-21 18:37:00,86.8,75.4,29.91,West,273,1.0,2.0,69,0.00,,---,0.00,VWS V14.01,2013-07-21 22:37:00,
2013-07-21 18:42:00,86.5,76.4,29.91,West,273,0.0,2.0,72,0.00,,---,0.00,VWS V14.01,2013-07-21 22:42:00,
2013-07-21 18:47:00,86.2,76.5,29.91,West,273,0.0,2.0,73,0.00,,---,0.00,VWS V14.01,2013-07-21 22:47:00,
2013-07-21 18:52:00,85.9,76.2,29.91,West,273,0.0,2.0,73,0.00,,---,0.00,VWS V14.01,2013-07-21 22:52:00,
2013-07-21 18:57:00,85.6,76.8,29.91,West,273,1.0,2.0,75,0.00,,---,0.00,VWS V14.01,2013-07-21 22:57:00,
2013-07-21 19:00:00,85.1,76.7,29.91,West,273,0.0,2.0,76,0.00,,---,0.00,VWS V14.01,2013-07-21 23:00:00,
2013-07-21 19:02:00,85.0,77.0,29.91,West,273,0.0,0.0,77,0.00,,---,0.00,VWS V14.01,2013-07-21 23:02:00,
2013-07-21 19:07:00,84.7,77.1,29.91,West,273,0.0,1.0,78,0.00,,---,0.00,VWS V14.01,2013-07-21 23:07:00,
2013-07-21 19:12:00,84.5,76.9,29.92,West,273,0.0,1.0,78,0.00,,---,0.00,VWS V14.01,2013-07-21 23:12:00,
2013-07-21 19:17:00,84.4,77.2,29.92,West,273,0.0,2.0,79,0.00,,---,0.00,VWS V14.01,2013-07-21 23:17:00,
2013-07-21 19:22:00,84.3,76.7,29.92,West,273,5.0,5.0,78,0.00,,---,0.00,VWS V14.01,2013-07-21 23:22:00,
2013-07-21 19:27:00,83.7,75.7,29.92,West,269,5.0,11.0,77,0.00,,---,0.00,VWS V14.01,2013-07-21 23:27:00,
2013-07-21 19:30:00,83.0,75.1,29.93,WNW,286,9.0,13.0,77,0.00,,---,0.00,VWS V14.01,2013-07-21 23:30:00,
2013-07-21 19:32:00,82.7,74.4,29.93,West,261,2.0,12.0,76,0.00,,---,0.00,VWS V14.01,2013-07-21 23:32:00,
2013-07-21 19:37:00,82.0,73.7,29.93,West,261,3.0,12.0,76,0.00,,---,0.00,VWS V14.01,2013-07-21 23:37:00,
2013-07-21 19:42:00,81.4,72.7,29.93,West,271,3.0,12.0,75,0.00,,---,0.00,VWS V14.01,2013-07-21 23:42:00,
2013-07-21 19:47:00,80.8,71.3,29.92,WNW,288,0.0,12.0,73,0.00,,---,0.00,VWS V14.01,2013-07-21 23:47:00,
2013-07-21 19:52:00,80.5,71.1,29.93,WNW,288,1.0,12.0,73,0.00,,---,0.00,VWS V14.01,2013-07-21 23:52:00,
2013-07-21 19:57:00,80.0,70.2,29.93,WNW,294,0.0,12.0,72,0.00,,---,0.00,VWS V14.01,2013-07-21 23:57:00,
2013-07-21 20:00:00,79.7,69.9,29.93,WNW,294,0.0,12.0,72,0.00,,---,0.00,VWS V14.01,2013-07-22 00:00:00,
2013-07-21 20:02:00,79.6,69.8,29.94,WNW,294,0.0,1.0,72,0.00,,---,0.00,VWS V14.01,2013-07-22 00:02:00,
2013-07-21 20:07:00,79.3,69.9,29.94,WNW,294,0.0,1.0,73,0.00,,---,0.00,VWS V14.01,2013-07-22 00:07:00,
2013-07-21 20:12:00,79.2,69.8,29.94,WNW,294,0.0,1.0,73,0.00,,---,0.00,VWS V14.01,2013-07-22 00:12:00,
2013-07-21 20:17:00,79.1,70.1,29.94,WNW,294,0.0,1.0,74,0.00,,---,0.00,VWS V14.01,2013-07-22 00:17:00,
2013-07-21 20:22:00,78.7,70.9,29.94,West,277,4.0,9.0,77,0.00,,---,0.00,VWS V14.01,2013-07-22 00:22:00,
2013-07-21 20:27:00,77.8,70.8,29.95,West,271,2.0,9.0,79,0.00,,---,0.00,VWS V14.01,2013-07-22 00:27:00,
2013-07-21 20:30:00,77.3,71.0,29.95,West,271,4.0,9.0,81,0.00,,---,0.00,VWS V14.01,2013-07-22 00:30:00,
2013-07-21 20:32:00,77.2,70.9,29.95,West,273,2.0,4.0,81,0.00,,---,0.00,VWS V14.01,2013-07-22 00:32:00,
2013-07-21 20:37:00,76.8,71.2,29.95,West,274,4.0,6.0,83,0.00,,---,0.00,VWS V14.01,2013-07-22 00:37:00,
2013-07-21 20:42:00,76.6,71.4,29.95,West,270,2.0,6.0,84,0.00,,---,0.00,VWS V14.01,2013-07-22 00:42:00,
2013-07-21 20:47:00,76.3,71.8,29.96,West,266,0.0,6.0,86,0.00,,---,0.00,VWS V14.01,2013-07-22 00:47:00,
2013-07-21 20:52:00,76.1,71.9,29.96,West,265,2.0,6.0,87,0.00,,---,0.00,VWS V14.01,2013-07-22 00:52:00,
2013-07-21 20:57:00,75.8,71.7,29.96,West,264,2.0,6.0,87,0.00,,---,0.00,VWS V14.01,2013-07-22 00:57:00,
2013-07-21 21:00:00,75.6,71.5,29.96,West,263,1.0,6.0,87,0.01,,---,0.01,VWS V14.01,2013-07-22 01:00:00,
2013-07-21 21:02:00,75.5,71.4,29.97,West,264,3.0,3.0,87,0.01,,---,0.01,VWS V14.01,2013-07-22 01:02:00,
2013-07-21 21:07:00,75.2,71.4,29.97,West,263,1.0,6.0,88,0.02,,---,0.02,VWS V14.01,2013-07-22 01:07:00,
2013-07-21 21:12:00,74.9,71.8,29.97,West,263,0.0,6.0,90,0.03,,---,0.03,VWS V14.01,2013-07-22 01:12:00,
2013-07-21 21:17:00,74.8,72.0,29.98,West,263,0.0,6.0,91,0.05,,---,0.05,VWS V14.01,2013-07-22 01:17:00,
2013-07-21 21:22:00,74.5,71.7,29.98,West,263,0.0,6.0,91,0.06,,---,0.06,VWS V14.01,2013-07-22 01:22:00,
2013-07-21 21:27:00,74.2,71.4,29.98,West,263,0.0,6.0,91,0.06,,---,0.06,VWS V14.01,2013-07-22 01:27:00,
2013-07-21 21:30:00,74.0,71.5,29.98,West,263,0.0,6.0,92,0.07,,---,0.07,VWS V14.01,2013-07-22 01:30:00,
2013-07-21 21:32:00,74.0,71.5,29.98,West,263,0.0,0.0,92,0.07,,---,0.07,VWS V14.01,2013-07-22 01:32:00,
2013-07-21 21:37:00,73.9,71.4,29.98,West,263,0.0,1.0,92,0.08,,---,0.08,VWS V14.01,2013-07-22 01:37:00,
2013-07-21 21:42:00,73.7,71.2,29.98,West,263,0.0,1.0,92,0.09,,---,0.09,VWS V14.01,2013-07-22 01:42:00,
2013-07-21 22:00:00,73.2,71.1,29.98,West,270,0.0,3.0,93,0.13,,---,0.13,VWS V14.01,2013-07-22 02:00:00,
2013-07-21 22:30:00,73.1,71.0,29.99,West,270,0.0,1.0,93,0.15,,---,0.16,VWS V14.01,2013-07-22 02:30:00,
2013-07-21 23:00:00,72.8,71.0,30.00,West,270,0.0,1.0,94,0.09,,---,0.16,VWS V14.01,2013-07-22 03:00:00,
2013-07-21 23:30:00,72.8,71.3,29.99,West,270,0.0,0.0,95,0.03,,---,0.16,VWS V14.01,2013-07-22 03:30:00,